Time;durP1;ratioP1;P1;durP2;ratioP2;P2;SDS_P1;SDS_P2;PMS_P1;PMS_P2;Temp;Humidity;BMP_temperature;BMP_pressure;BME280_temperature;BME280_humidity;BME280_pressure;Samples;Min_cycle;Max_cycle;Signal;HPM_P1;HPM_P2
2022/12/25 00:01:26;;;;;;;63.13;19.20;;;0.20;99.90;-0.70;100431;;;;596518;240;24098;-80
2022/12/25 00:03:54;;;;;;;85.13;21.53;;;0.30;99.90;-0.70;100427;;;;596138;240;24064;-79
2022/12/25 00:06:22;;;;;;;88.03;19.00;;;0.30;99.90;-0.70;100432;;;;576005;245;24119;-80
2022/12/25 00:08:50;;;;;;;95.25;23.15;;;0.30;99.90;-0.80;100429;;;;581746;240;35303;-79
2022/12/25 00:11:21;;;;;;;26.83;9.93;;;0.10;99.90;-0.80;100420;;;;595929;240;24094;-79
2022/12/25 00:13:46;;;;;;;45.90;14.03;;;0.30;99.90;-0.70;100421;;;;586797;240;24115;-79
2022/12/25 00:16:20;;;;;;;53.13;17.37;;;0.30;99.90;-0.70;100428;;;;586703;240;24076;-79
2022/12/25 00:18:48;;;;;;;58.37;18.90;;;0.30;99.90;-0.70;100430;;;;576234;245;24127;-79
2022/12/25 00:21:16;;;;;;;56.10;18.73;;;0.30;99.90;-0.70;100432;;;;576086;245;24202;-78
2022/12/25 00:23:44;;;;;;;50.70;18.07;;;0.40;99.90;-0.70;100438;;;;586780;241;24071;-80
2022/12/25 00:26:13;;;;;;;63.60;20.53;;;0.40;99.90;-0.60;100438;;;;596222;241;24067;-79
2022/12/25 00:28:44;;;;;;;61.20;18.37;;;0.40;99.90;-0.60;100450;;;;583305;242;24064;-80
2022/12/25 00:31:09;;;;;;;72.67;20.30;;;0.40;99.90;-0.60;100470;;;;586736;241;24171;-79
2022/12/25 00:33:40;;;;;;;50.00;18.03;;;0.50;99.90;-0.50;100460;;;;583159;242;25158;-80
2022/12/25 00:36:05;;;;;;;67.03;19.10;;;0.40;99.90;-0.50;100461;;;;575831;245;24155;-80
2022/12/25 00:38:33;;;;;;;72.87;18.20;;;0.50;99.90;-0.50;100462;;;;596241;241;24086;-79
2022/12/25 00:41:08;;;;;;;58.33;18.03;;;0.50;99.90;-0.50;100460;;;;575952;245;24133;-79
2022/12/25 00:43:37;;;;;;;48.17;19.33;;;0.50;99.90;-0.50;100460;;;;587027;241;24048;-79
2022/12/25 00:46:04;;;;;;;54.47;17.90;;;0.50;99.90;-0.50;100472;;;;586930;241;24079;-79
2022/12/25 00:48:35;;;;;;;46.57;17.13;;;0.50;99.90;-0.50;100462;;;;595897;237;24081;-80
2022/12/25 00:51:02;;;;;;;59.23;19.37;;;0.50;99.90;-0.40;100462;;;;575587;245;24149;-80
2022/12/25 00:53:27;;;;;;;53.77;18.93;;;0.50;99.90;-0.50;100454;;;;586747;241;24067;-79
2022/12/25 00:55:55;;;;;;;51.57;18.00;;;0.50;99.90;-0.50;100458;;;;586614;241;24079;-80
2022/12/25 00:58:27;;;;;;;51.33;18.47;;;0.60;99.90;-0.50;100472;;;;588242;240;24085;-80
2022/12/25 01:00:51;;;;;;;47.33;18.30;;;0.60;99.90;-0.50;100471;;;;576736;245;24088;-78
2022/12/25 01:03:19;;;;;;;62.57;18.60;;;0.60;99.90;-0.40;100474;;;;596587;240;24064;-79
2022/12/25 01:05:56;;;;;;;55.15;17.35;;;0.60;99.90;-0.40;100480;;;;591407;240;35215;-81
2022/12/25 01:08:24;;;;;;;21.77;9.93;;;0.60;99.90;-0.40;100483;;;;587015;240;24083;-80
2022/12/25 01:10:57;;;;;;;32.27;10.17;;;0.60;99.90;-0.40;100479;;;;587579;240;24073;-79
2022/12/25 01:13:26;;;;;;;30.87;12.40;;;0.70;99.90;-0.30;100487;;;;587621;240;25145;-80
2022/12/25 01:15:55;;;;;;;36.47;15.67;;;0.70;99.90;-0.30;100504;;;;578689;245;24091;-79
2022/12/25 01:18:26;;;;;;;50.03;17.23;;;0.70;99.90;-0.30;100491;;;;586859;240;24207;-80
2022/12/25 01:20:50;;;;;;;42.97;17.53;;;0.70;99.90;-0.30;100487;;;;584997;245;24093;-81
2022/12/25 01:23:18;;;;;;;44.63;18.57;;;0.70;99.90;-0.20;100493;;;;587340;240;24127;-80
2022/12/25 01:25:46;;;;;;;40.73;17.00;;;0.80;99.90;-0.20;100490;;;;596530;240;24106;-79
2022/12/25 01:28:17;;;;;;;43.90;19.17;;;0.80;99.90;-0.20;100482;;;;596536;240;24047;-80
2022/12/25 01:30:53;;;;;;;39.40;16.60;;;0.80;99.90;-0.20;100479;;;;575504;245;24108;-80
2022/12/25 01:33:17;;;;;;;45.63;18.40;;;0.80;99.90;-0.20;100480;;;;586412;241;24066;-79
2022/12/25 01:35:45;;;;;;;46.63;19.37;;;0.80;99.90;-0.20;100473;;;;596238;241;24089;-78
2022/12/25 01:38:16;;;;;;;38.03;17.77;;;0.80;99.90;-0.30;100482;;;;595968;241;24101;-79
2022/12/25 01:40:40;;;;;;;49.17;18.53;;;0.70;99.90;-0.30;100481;;;;586592;241;24130;-80
2022/12/25 01:43:23;;;;;;;43.27;19.00;;;0.70;99.90;-0.30;100482;;;;595698;241;24070;-80
2022/12/25 01:45:54;;;;;;;43.53;18.70;;;0.70;99.90;-0.30;100490;;;;594911;238;24103;-79
2022/12/25 01:48:32;;;;;;;38.77;17.90;;;0.70;99.90;-0.30;100491;;;;596155;237;24070;-79
2022/12/25 01:51:06;;;;;;;39.93;17.97;;;0.70;99.90;-0.30;100489;;;;586326;241;24100;-79
2022/12/25 01:53:34;;;;;;;37.63;17.60;;;0.70;99.90;-0.30;100488;;;;575902;245;24092;-80
2022/12/25 01:56:02;;;;;;;44.43;19.60;;;0.70;99.90;-0.20;100488;;;;586614;241;24094;-80
2022/12/25 01:58:33;;;;;;;44.03;18.17;;;0.70;99.90;-0.20;100495;;;;586442;241;24117;-80
2022/12/25 02:00:58;;;;;;;55.57;19.97;;;0.80;99.90;-0.20;100491;;;;586020;241;24103;-80
2022/12/25 02:03:26;;;;;;;56.60;18.63;;;0.80;99.90;-0.20;100492;;;;595798;241;24093;-80
2022/12/25 02:05:56;;;;;;;47.47;22.17;;;0.80;99.90;-0.30;100491;;;;595946;241;24223;-80
2022/12/25 02:08:21;;;;;;;49.33;19.40;;;0.70;99.90;-0.30;100497;;;;587150;240;24120;-79
2022/12/25 02:10:49;;;;;;;35.30;18.10;;;0.70;99.90;-0.30;100510;;;;588328;240;24049;-79
2022/12/25 02:13:17;;;;;;;40.73;19.33;;;0.70;99.90;-0.30;100500;;;;596927;240;24052;-79
2022/12/25 02:16:09;;;;;;;47.93;19.67;;;0.70;99.90;-0.30;100489;;;;576475;245;24120;-79
2022/12/25 02:18:40;;;;;;;48.47;18.17;;;0.70;99.90;-0.30;100500;;;;587128;240;24110;-79
2022/12/25 02:21:23;;;;;;;52.93;19.23;;;0.70;99.90;-0.30;100484;;;;576564;245;24104;-79
2022/12/25 02:24:21;;;;;;;52.97;20.33;;;0.70;99.90;-0.30;100482;;;;586927;240;24152;-80
2022/12/25 02:27:04;;;;;;;87.17;21.43;;;0.70;99.90;-0.30;100486;;;;590859;240;24064;-80
2022/12/25 02:29:53;;;;;;;81.17;21.27;;;0.70;99.90;-0.40;100494;;;;586868;240;24191;-79
2022/12/25 02:32:30;;;;;;;87.47;21.60;;;0.60;99.90;-0.40;100496;;;;587004;240;24151;-79
2022/12/25 02:35:19;;;;;;;117.67;25.33;;;0.60;99.90;-0.40;100491;;;;587198;240;24084;-81
2022/12/25 02:37:56;;;;;;;46.20;21.07;;;0.60;99.90;-0.50;100487;;;;587205;240;24108;-79
2022/12/25 02:40:30;;;;;;;70.20;21.27;;;0.50;99.90;-0.50;100499;;;;595390;238;24151;-80
2022/12/25 03:07:59;;;;;;;50.73;22.57;;;0.40;99.90;-0.60;100498;;;;587351;241;24082;-78
2022/12/25 03:13:16;;;;;;;27.87;11.60;;;0.40;99.90;-0.50;100496;;;;596337;241;24059;-78
2022/12/25 03:18:32;;;;;;;32.90;11.80;;;0.50;99.90;-0.50;100487;;;;587128;241;24192;-80
2022/12/25 03:31:10;;;;;;;53.10;22.17;;;0.60;99.90;-0.40;100497;;;;587862;240;24096;-79
2022/12/25 03:31:50;;;;;;;49.87;22.97;;;0.60;99.90;-0.50;100505;;;;596928;240;24109;-79
2022/12/25 04:36:24;;;;;;;25.40;14.23;;;0.70;99.90;-0.30;100553;;;;587118;241;24028;-79
2022/12/25 04:38:49;;;;;;;27.67;13.93;;;0.70;99.90;-0.30;100543;;;;582970;242;24136;-79
2022/12/25 04:41:18;;;;;;;21.40;13.63;;;0.60;99.90;-0.30;100557;;;;570914;246;24042;-79
2022/12/25 04:43:46;;;;;;;28.23;14.30;;;0.70;99.90;-0.30;100560;;;;581104;246;24196;-79
2022/12/25 04:46:19;;;;;;;24.97;14.60;;;0.70;99.90;-0.30;100557;;;;581135;247;24093;-79
2022/12/25 04:48:44;;;;;;;26.77;15.17;;;0.70;99.90;-0.30;100548;;;;569855;247;25140;-80
2022/12/25 04:51:15;;;;;;;24.70;14.83;;;0.70;99.90;-0.30;100558;;;;571954;247;25116;-80
2022/12/25 04:53:43;;;;;;;22.10;13.23;;;0.70;99.90;-0.30;100557;;;;591259;243;24113;-79
2022/12/25 04:56:11;;;;;;;20.13;13.23;;;0.70;99.90;-0.30;100551;;;;575659;246;24079;-79
2022/12/25 04:58:39;;;;;;;20.70;12.10;;;0.70;99.90;-0.30;100548;;;;580419;247;25136;-80
2022/12/25 05:01:07;;;;;;;19.37;12.27;;;0.70;99.90;-0.40;100559;;;;582008;243;24109;-79
2022/12/25 05:03:38;;;;;;;19.03;11.80;;;0.60;99.90;-0.40;100564;;;;582169;243;24117;-79
2022/12/25 05:06:03;;;;;;;21.07;12.67;;;0.60;99.90;-0.40;100578;;;;576360;246;24062;-80
2022/12/25 05:08:34;;;;;;;22.43;13.60;;;0.60;99.90;-0.40;100567;;;;571575;247;24113;-79
2022/12/25 05:10:59;;;;;;;22.27;11.87;;;0.50;99.90;-0.40;100555;;;;577151;249;24134;-79
2022/12/25 05:13:27;;;;;;;26.40;12.60;;;0.50;99.90;-0.40;100568;;;;571006;247;24114;-80
2022/12/25 05:15:55;;;;;;;26.17;11.60;;;0.60;99.90;-0.40;100571;;;;571534;247;24170;-81
2022/12/25 05:18:23;;;;;;;26.03;13.37;;;0.60;99.90;-0.40;100574;;;;569467;246;24106;-81
2022/12/25 05:20:54;;;;;;;27.53;14.23;;;0.60;99.90;-0.40;100569;;;;569037;248;24073;-81
2022/12/25 05:23:23;;;;;;;20.63;12.93;;;0.60;99.90;-0.40;100563;;;;582265;243;24053;-79
2022/12/25 05:25:51;;;;;;;25.30;12.37;;;0.60;99.90;-0.40;100574;;;;582343;243;25088;-80
2022/12/25 05:28:20;;;;;;;19.83;12.67;;;0.60;99.90;-0.40;100575;;;;582254;243;25104;-80
2022/12/25 05:30:49;;;;;;;24.03;11.93;;;0.60;99.90;-0.40;100556;;;;582259;243;24093;-80
2022/12/25 05:33:16;;;;;;;23.50;13.17;;;0.60;99.90;-0.40;100552;;;;582191;243;24060;-79
2022/12/25 05:35:44;;;;;;;22.00;12.73;;;0.60;99.90;-0.30;100564;;;;582212;243;24034;-79
2022/12/25 05:38:12;;;;;;;21.80;13.03;;;0.70;99.90;-0.30;100563;;;;582312;243;24054;-79
2022/12/25 05:40:40;;;;;;;18.47;13.03;;;0.70;99.90;-0.30;100569;;;;581967;241;24068;-80
2022/12/25 05:43:08;;;;;;;29.27;14.23;;;0.70;99.90;-0.30;100565;;;;579843;244;24111;-80
2022/12/25 05:45:36;;;;;;;30.43;11.77;;;0.70;99.90;-0.30;100568;;;;580642;244;24091;-79
2022/12/25 05:48:04;;;;;;;27.57;13.67;;;0.70;99.90;-0.30;100573;;;;580362;245;24100;-79
2022/12/25 05:50:32;;;;;;;32.27;13.77;;;0.70;99.90;-0.30;100560;;;;576372;245;24152;-79
2022/12/25 05:53:00;;;;;;;32.47;14.27;;;0.70;99.90;-0.30;100553;;;;579788;245;24107;-80
2022/12/25 05:55:28;;;;;;;25.93;13.53;;;0.70;99.90;-0.30;100556;;;;579758;245;24171;-80
2022/12/25 05:57:56;;;;;;;28.27;14.07;;;0.80;99.90;-0.20;100574;;;;579716;245;25117;-80
2022/12/25 06:00:24;;;;;;;26.77;14.43;;;0.80;99.90;-0.20;100570;;;;585272;241;24075;-79
2022/12/25 06:02:51;;;;;;;35.07;14.23;;;0.80;99.90;-0.20;100591;;;;579131;245;24154;-79
2022/12/25 06:05:19;;;;;;;31.67;13.33;;;0.80;99.90;-0.20;100599;;;;576318;245;24097;-79
2022/12/25 06:07:47;;;;;;;24.47;14.03;;;0.80;99.90;-0.20;100594;;;;585251;245;24085;-79
2022/12/25 06:10:15;;;;;;;28.17;13.87;;;0.80;99.90;-0.20;100596;;;;579142;245;24166;-80
2022/12/25 06:12:43;;;;;;;40.23;14.17;;;0.80;99.90;-0.20;100586;;;;578931;245;24120;-80
2022/12/25 06:15:11;;;;;;;33.97;14.37;;;0.80;99.90;-0.20;100589;;;;579158;245;24136;-79
2022/12/25 06:17:39;;;;;;;28.13;13.53;;;0.80;99.90;-0.20;100590;;;;579033;245;24120;-80
2022/12/25 06:20:07;;;;;;;32.17;15.50;;;0.90;99.90;-0.10;100586;;;;578966;245;24137;-80
2022/12/25 06:22:35;;;;;;;29.83;14.33;;;0.80;99.90;-0.10;100582;;;;575905;245;24148;-80
2022/12/25 06:25:04;;;;;;;33.20;14.40;;;0.90;99.90;-0.10;100603;;;;585559;241;25150;-79
2022/12/25 06:27:32;;;;;;;33.28;12.48;;;0.90;99.90;-0.10;100600;;;;589539;240;35096;-79
2022/12/25 06:30:04;;;;;;;17.83;9.70;;;0.90;99.90;-0.10;100604;;;;594642;240;24049;-79
2022/12/25 06:32:28;;;;;;;22.30;9.27;;;0.90;99.90;-0.10;100611;;;;585065;241;24187;-79
2022/12/25 06:34:56;;;;;;;31.92;13.43;;;0.90;99.90;-0.10;100617;;;;583754;241;35175;-80
2022/12/25 06:37:24;;;;;;;23.60;10.47;;;0.90;99.90;0.00;100622;;;;594655;241;24049;-79
2022/12/25 06:39:52;;;;;;;19.63;9.47;;;1.00;99.90;0.00;100614;;;;594713;241;24060;-79
2022/12/25 06:42:23;;;;;;;12.97;8.00;;;1.00;99.90;0.00;100621;;;;585545;241;24053;-77
2022/12/25 06:44:52;;;;;;;16.10;9.10;;;1.00;99.90;0.00;100634;;;;584132;241;24093;-80
2022/12/25 06:47:19;;;;;;;21.53;9.50;;;1.00;99.90;0.00;100634;;;;585268;241;24111;-80
2022/12/25 06:49:47;;;;;;;34.83;11.10;;;1.00;99.90;0.00;100637;;;;585567;241;24122;-79
2022/12/25 06:52:14;;;;;;;27.80;10.07;;;0.90;99.90;0.00;100640;;;;594805;241;24044;-78
2022/12/25 06:54:42;;;;;;;24.27;10.53;;;1.00;99.90;-0.10;100636;;;;595386;239;24100;-79
2022/12/25 06:57:11;;;;;;;36.93;12.87;;;0.90;99.90;-0.10;100640;;;;596110;241;24047;-78
2022/12/25 06:59:39;;;;;;;49.87;16.87;;;0.90;99.90;0.00;100636;;;;585296;241;24093;-79
2022/12/25 07:02:08;;;;;;;50.63;18.77;;;0.80;99.90;0.00;100640;;;;595196;241;24084;-80
2022/12/25 07:04:36;;;;;;;52.10;18.77;;;0.80;99.90;0.10;100650;;;;583265;241;24151;-79
2022/12/25 07:07:04;;;;;;;53.13;18.67;;;0.90;99.90;0.10;100644;;;;583509;241;24061;-79
2022/12/25 07:09:31;;;;;;;87.20;21.57;;;0.90;99.90;0.10;100662;;;;592755;241;24065;-79
2022/12/25 07:12:05;;;;;;;47.77;20.00;;;0.90;99.90;0.00;100658;;;;593333;241;24121;-81
2022/12/25 07:14:33;;;;;;;57.30;20.70;;;0.80;99.90;0.00;100645;;;;585423;241;24049;-79
2022/12/25 07:17:01;;;;;;;65.83;19.53;;;0.80;99.90;0.00;100655;;;;593944;240;25204;-79
2022/12/25 07:19:29;;;;;;;73.55;24.50;;;0.80;99.90;0.00;100663;;;;580380;241;35263;-80
2022/12/25 07:21:57;;;;;;;29.50;10.70;;;0.80;99.90;0.00;100662;;;;583719;239;24057;-80
2022/12/25 07:24:25;;;;;;;30.77;11.40;;;0.80;99.90;0.10;100677;;;;577557;243;24163;-80
2022/12/25 07:26:54;;;;;;;27.27;12.07;;;0.90;99.90;0.10;100686;;;;567413;247;24204;-79
2022/12/25 07:29:22;;;;;;;68.90;19.03;;;0.80;99.90;0.10;100690;;;;586999;239;24023;-80
2022/12/25 07:31:49;;;;;;;109.70;23.20;;;0.80;99.90;0.10;100692;;;;560655;247;24117;-80
2022/12/25 07:34:17;;;;;;;62.90;20.40;;;0.90;99.90;0.20;100686;;;;587957;238;24084;-79
2022/12/25 07:36:45;;;;;;;79.53;21.17;;;0.90;99.90;0.20;100692;;;;583375;239;24062;-79
2022/12/25 07:39:15;;;;;;;87.37;23.10;;;0.90;99.90;0.20;100705;;;;583068;239;24053;-80
2022/12/25 07:41:41;;;;;;;66.37;21.30;;;1.00;99.90;0.20;100708;;;;567818;250;24170;-79
2022/12/25 07:44:10;;;;;;;106.07;22.37;;;1.00;99.90;0.20;100723;;;;567889;249;24102;-79
2022/12/25 07:46:41;;;;;;;83.03;22.73;;;1.00;99.90;0.20;100724;;;;585447;239;39523;-80
2022/12/25 07:49:09;;;;;;;27.03;10.67;;;1.00;99.90;0.30;100722;;;;585336;239;24086;-78
2022/12/25 07:51:39;;;;;;;117.10;18.95;;;1.00;99.90;0.30;100722;;;;591085;239;45894;-80
2022/12/25 07:54:04;;;;;;;48.77;13.63;;;1.10;99.90;0.30;100717;;;;577937;243;24112;-79
2022/12/25 07:56:32;;;;;;;29.93;12.10;;;1.10;99.90;0.40;100721;;;;587493;240;24060;-79
2022/12/25 07:59:00;;;;;;;29.70;10.77;;;1.10;99.90;0.40;100725;;;;586806;239;24078;-80
2022/12/25 08:01:28;;;;;;;24.30;12.07;;;1.20;99.90;0.50;100721;;;;586542;240;24045;-79
2022/12/25 08:03:56;;;;;;;29.77;13.20;;;1.20;99.90;0.50;100712;;;;584417;242;24092;-79
2022/12/25 08:06:28;;;;;;;26.67;12.10;;;1.20;99.90;0.50;100708;;;;585491;241;24109;-80
2022/12/25 08:08:55;;;;;;;32.03;12.70;;;1.30;99.90;0.60;100720;;;;585826;241;24132;-80
2022/12/25 08:11:20;;;;;;;39.60;12.77;;;1.40;99.90;0.60;100728;;;;585914;241;24085;-79
2022/12/25 08:13:48;;;;;;;40.60;14.50;;;1.40;99.90;0.70;100729;;;;591673;241;24045;-80
2022/12/25 08:16:19;;;;;;;40.77;12.73;;;1.40;99.90;0.70;100731;;;;591471;241;24046;-79
2022/12/25 08:18:44;;;;;;;40.80;13.53;;;1.40;99.90;0.70;100733;;;;591329;241;24110;-81
2022/12/25 08:21:12;;;;;;;33.33;11.73;;;1.50;99.90;0.80;100737;;;;585632;241;24078;-83
2022/12/25 08:23:42;;;;;;;34.40;14.27;;;1.50;99.90;0.80;100736;;;;585932;241;24102;-83
2022/12/25 08:26:10;;;;;;;37.03;13.77;;;1.50;99.90;0.80;100733;;;;585712;241;24146;-84
2022/12/25 08:28:38;;;;;;;40.00;12.83;;;1.50;99.90;0.80;100734;;;;585378;241;24126;-83
2022/12/25 08:31:15;;;;;;;31.40;14.07;;;1.60;99.90;0.80;100739;;;;590799;241;24076;-83
2022/12/25 08:33:47;;;;;;;33.70;14.33;;;1.60;99.90;0.80;100746;;;;585504;241;24064;-81
2022/12/25 08:36:14;;;;;;;39.33;14.60;;;1.60;99.90;0.80;100739;;;;585091;241;24113;-81
2022/12/25 08:38:39;;;;;;;32.17;14.27;;;1.60;99.90;0.90;100744;;;;585053;241;24073;-80
2022/12/25 08:41:10;;;;;;;40.00;12.93;;;1.60;99.90;0.90;100743;;;;585304;241;24056;-83
2022/12/25 08:43:35;;;;;;;39.07;15.73;;;1.70;99.90;1.00;100737;;;;584814;241;24096;-81
2022/12/25 08:46:05;;;;;;;36.30;14.97;;;1.70;99.90;1.10;100740;;;;585181;241;24045;-81
2022/12/25 08:48:31;;;;;;;33.77;14.90;;;1.90;99.90;1.20;100738;;;;590685;240;25251;-79
2022/12/25 08:50:59;;;;;;;37.50;14.23;;;1.90;99.90;1.10;100734;;;;585137;241;24069;-80
2022/12/25 08:53:27;;;;;;;49.33;14.17;;;1.90;99.90;1.10;100735;;;;585102;241;24048;-81
2022/12/25 08:55:58;;;;;;;39.50;14.43;;;1.90;99.90;1.10;100727;;;;590424;241;24047;-81
2022/12/25 08:58:26;;;;;;;37.03;14.47;;;1.90;99.90;1.10;100735;;;;584945;241;24319;-79
2022/12/25 09:00:54;;;;;;;47.67;15.40;;;1.90;99.90;1.20;100734;;;;584996;241;24120;-79
2022/12/25 09:03:24;;;;;;;42.07;15.30;;;1.90;99.90;1.10;100736;;;;590608;241;24084;-82
2022/12/25 09:05:53;;;;;;;36.97;14.33;;;1.90;99.90;1.10;100729;;;;584721;241;24082;-82
2022/12/25 09:08:21;;;;;;;46.93;15.40;;;1.90;99.90;1.10;100737;;;;584691;241;24057;-84
2022/12/25 09:10:48;;;;;;;39.40;14.30;;;1.90;99.90;1.10;100744;;;;584998;241;24111;-82
2022/12/25 09:13:14;;;;;;;44.77;17.30;;;1.80;99.90;1.00;100749;;;;583446;241;24072;-84
2022/12/25 09:15:42;;;;;;;45.77;16.27;;;1.80;99.90;1.00;100765;;;;590801;241;24090;-81
2022/12/25 09:18:10;;;;;;;37.97;15.13;;;1.80;99.90;1.10;100756;;;;591656;241;24114;-82
2022/12/25 09:20:38;;;;;;;29.93;14.90;;;1.80;99.90;1.10;100765;;;;592079;241;24107;-82
2022/12/25 09:23:06;;;;;;;42.47;14.93;;;1.80;99.90;1.10;100761;;;;591695;241;24058;-81
2022/12/25 09:25:34;;;;;;;44.40;17.10;;;1.90;99.90;1.10;100765;;;;591711;241;24049;-82
2022/12/25 09:28:02;;;;;;;37.73;16.13;;;1.90;99.90;1.10;100769;;;;595224;241;24067;-81
2022/12/25 09:30:31;;;;;;;44.80;15.47;;;1.80;99.90;1.10;100771;;;;590971;241;24128;-81
2022/12/25 09:32:59;;;;;;;40.47;15.20;;;1.80;99.90;1.10;100761;;;;591281;241;24072;-82
2022/12/25 09:35:27;;;;;;;52.37;16.33;;;1.80;99.90;1.10;100759;;;;591061;241;24068;-83
2022/12/25 09:37:55;;;;;;;50.90;16.97;;;1.90;99.90;1.10;100758;;;;590770;241;24073;-80
2022/12/25 09:40:23;;;;;;;45.37;17.63;;;1.90;99.90;1.20;100753;;;;590925;241;24152;-80
2022/12/25 09:42:50;;;;;;;38.17;17.47;;;1.90;99.90;1.20;100754;;;;585226;241;24108;-80
2022/12/25 09:45:18;;;;;;;44.23;15.37;;;2.00;99.90;1.10;100741;;;;585432;241;24069;-82
2022/12/25 09:47:46;;;;;;;46.07;18.77;;;1.90;99.90;1.10;100751;;;;584826;241;24081;-84
2022/12/25 09:50:21;;;;;;;51.77;19.57;;;1.90;99.90;1.20;100750;;;;585458;241;24065;-84
2022/12/25 09:53:01;;;;;;;59.67;19.97;;;2.00;99.90;1.20;100757;;;;584232;241;25147;-83
2022/12/25 09:55:29;;;;;;;48.13;16.17;;;1.90;99.90;1.30;100763;;;;583594;242;24139;-83
2022/12/25 09:58:00;;;;;;;48.37;18.37;;;2.10;99.90;1.40;100758;;;;585427;241;24056;-84
2022/12/25 10:00:42;;;;;;;46.20;17.63;;;2.10;99.90;1.50;100758;;;;594899;241;24099;-83
2022/12/25 10:03:31;;;;;;;49.70;19.30;;;2.20;99.90;1.60;100773;;;;585397;241;24064;-83
2022/12/25 10:06:24;;;;;;;50.40;18.50;;;2.30;99.90;1.70;100775;;;;583228;241;24077;-85
2022/12/25 10:09:13;;;;;;;45.33;16.57;;;2.40;99.90;1.70;100784;;;;585205;241;24111;-84
2022/12/25 10:12:08;;;;;;;38.67;17.17;;;2.50;99.90;1.80;100774;;;;583630;241;24113;-83
2022/12/25 10:14:39;;;;;;;48.07;18.60;;;2.50;99.90;1.80;100762;;;;584928;241;24093;-83
2022/12/25 10:17:19;;;;;;;48.47;17.67;;;2.70;99.90;1.90;100780;;;;585280;241;24104;-81
2022/12/25 10:20:05;;;;;;;46.70;18.37;;;2.60;99.90;1.90;100778;;;;585115;241;24064;-81
2022/12/25 10:22:42;;;;;;;44.67;18.17;;;2.70;99.90;2.00;100780;;;;585199;241;24112;-80
2022/12/25 10:25:16;;;;;;;48.97;16.77;;;2.70;99.90;2.00;100786;;;;582942;241;24045;-81
2022/12/25 10:27:44;;;;;;;43.77;17.70;;;2.70;99.90;2.00;100774;;;;594061;240;25124;-83
2022/12/25 10:30:18;;;;;;;42.10;16.50;;;2.80;99.90;2.00;100764;;;;585367;240;24132;-81
2022/12/25 10:32:50;;;;;;;51.70;18.00;;;2.80;99.90;2.10;100764;;;;591044;241;24074;-82
2022/12/25 10:35:14;;;;;;;45.20;18.77;;;2.80;99.90;2.20;100752;;;;590823;241;24071;-81
2022/12/25 10:37:42;;;;;;;38.70;17.87;;;2.90;99.90;2.20;100758;;;;586427;241;24044;-80
2022/12/25 10:40:23;;;;;;;38.37;16.87;;;2.90;99.90;2.10;100752;;;;585985;241;24133;-80
2022/12/25 10:43:00;;;;;;;47.93;19.73;;;2.90;99.90;2.00;100752;;;;584893;241;25102;-81
2022/12/25 10:45:27;;;;;;;48.50;20.40;;;2.80;99.90;1.90;100757;;;;595585;241;24068;-82
2022/12/25 10:48:08;;;;;;;54.87;20.70;;;2.70;99.90;1.90;100754;;;;595317;240;24097;-82
2022/12/25 10:50:37;;;;;;;51.10;19.00;;;2.70;99.90;1.90;100746;;;;583613;241;24183;-82
2022/12/25 10:53:03;;;;;;;51.77;20.80;;;2.70;99.90;1.90;100750;;;;585311;241;24083;-81
2022/12/25 10:55:30;;;;;;;40.37;18.87;;;2.70;99.90;1.90;100736;;;;595814;239;24145;-82
2022/12/25 10:58:02;;;;;;;48.17;18.43;;;2.60;99.90;1.90;100744;;;;582109;242;24085;-84
2022/12/25 11:00:26;;;;;;;35.50;14.83;;;2.60;99.90;1.90;100740;;;;566363;250;24118;-82
2022/12/25 11:02:58;;;;;;;51.97;17.87;;;2.60;99.90;1.80;100739;;;;573744;247;24203;-83
2022/12/25 11:05:28;;;;;;;49.77;18.50;;;2.60;99.90;1.80;100732;;;;576023;245;24135;-80
2022/12/25 11:07:58;;;;;;;35.73;15.07;;;2.60;99.90;1.80;100732;;;;571487;247;24166;-81
2022/12/25 11:10:45;;;;;;;;;;;;;;;;;;;;;
2022/12/25 11:13:14;;;;;;;60.43;22.10;;;2.60;99.90;1.90;100741;;;;565234;248;24163;-82
2022/12/25 11:15:34;;;;;;;58.27;21.23;;;2.60;99.90;1.90;100756;;;;563889;250;25274;-82
2022/12/25 11:18:04;;;;;;;54.33;20.97;;;2.60;99.90;1.90;100750;;;;583290;246;24116;-81
2022/12/25 11:20:35;;;;;;;55.10;18.30;;;2.60;99.90;1.90;100755;;;;585777;241;24101;-83
2022/12/25 11:23:01;;;;;;;66.73;22.23;;;2.70;99.90;2.00;100748;;;;590874;239;24048;-83
2022/12/25 11:25:29;;;;;;;53.40;22.27;;;2.70;99.90;2.00;100735;;;;588455;242;24097;-81
2022/12/25 11:27:59;;;;;;;80.18;31.52;;;2.60;99.90;2.10;100743;;;;579454;245;35417;-82
2022/12/25 11:30:30;;;;;;;66.60;25.37;;;2.80;99.90;2.10;100729;;;;573484;247;24152;-82
2022/12/25 11:33:05;;;;;;;62.07;22.80;;;2.80;99.90;2.10;100744;;;;574682;244;24174;-80
2022/12/25 11:35:33;;;;;;;48.97;17.83;;;2.90;99.90;2.10;100726;;;;570165;249;24175;-81
2022/12/25 11:38:01;;;;;;;53.33;22.00;;;2.80;99.90;2.10;100731;;;;574872;249;24163;-83
2022/12/25 11:40:29;;;;;;;53.40;19.87;;;2.90;99.90;2.20;100721;;;;575098;247;24124;-80
2022/12/25 11:43:03;;;;;;;47.43;20.37;;;2.90;99.90;2.10;100722;;;;572619;249;24108;-81
2022/12/25 11:45:36;;;;;;;59.27;22.13;;;2.90;99.90;2.10;100722;;;;566549;249;24192;-81
2022/12/25 11:48:19;;;;;;;58.80;22.03;;;2.90;99.90;2.10;100712;;;;582290;245;24128;-82
2022/12/25 11:50:49;;;;;;;67.47;22.93;;;2.80;99.90;2.00;100721;;;;554942;254;24063;-83
2022/12/25 11:53:48;;;;;;;97.85;32.45;;;2.70;99.90;2.00;100736;;;;571583;245;35350;-82
2022/12/25 11:56:25;;;;;;;68.03;26.83;;;2.70;99.90;1.90;100730;;;;556834;254;24047;-81
2022/12/25 11:59:02;;;;;;;59.50;21.23;;;2.60;99.90;1.90;100731;;;;576365;245;24091;-83
2022/12/25 12:01:48;;;;;;;49.30;21.63;;;2.60;99.90;1.90;100735;;;;555853;254;24047;-81
2022/12/25 12:04:27;;;;;;;61.17;22.17;;;2.60;99.90;1.90;100723;;;;574871;245;24153;-81
2022/12/25 12:07:13;;;;;;;54.83;22.37;;;2.60;99.90;1.80;100731;;;;556359;254;24196;-82
2022/12/25 12:21:24;;;;;;;83.27;26.93;;;2.50;99.90;1.70;100736;;;;568136;250;25336;-84
2022/12/25 12:24:13;;;;;;;109.93;30.57;;;2.50;99.90;1.60;100739;;;;576534;245;24129;-82
2022/12/25 12:26:41;;;;;;;95.33;32.60;;;2.40;99.90;1.60;100739;;;;584658;241;24055;-80
2022/12/25 12:29:24;;;;;;;158.68;39.33;;;2.30;99.90;1.50;100747;;;;569803;246;46195;-81
2022/12/25 12:31:56;;;;;;;40.47;18.50;;;2.30;99.90;1.40;100755;;;;583323;242;24066;-80
2022/12/25 12:34:23;;;;;;;43.67;17.63;;;2.10;99.90;1.40;100768;;;;582761;242;24047;-79
2022/12/25 12:36:52;;;;;;;42.80;18.73;;;2.10;99.90;1.40;100777;;;;583143;242;24075;-81
2022/12/25 12:39:23;;;;;;;46.53;20.63;;;2.10;99.90;1.40;100777;;;;582576;242;24052;-81
2022/12/25 12:41:51;;;;;;;59.30;23.33;;;2.10;99.90;1.40;100780;;;;581433;242;24103;-80
2022/12/25 12:44:20;;;;;;;67.50;25.27;;;2.10;99.90;1.40;100777;;;;591912;242;24101;-81
2022/12/25 12:46:53;;;;;;;106.23;31.97;;;2.10;99.90;1.40;100776;;;;577920;246;24096;-82
2022/12/25 12:49:21;;;;;;;107.90;35.37;;;2.00;99.90;1.30;100765;;;;584300;245;24077;-80
2022/12/25 12:51:50;;;;;;;204.10;39.03;;;2.00;99.90;1.40;100766;;;;579962;243;24120;-80
2022/12/25 12:54:22;;;;;;;169.83;39.30;;;2.00;99.90;1.30;100776;;;;582984;243;24080;-80
2022/12/25 12:57:05;;;;;;;129.83;33.77;;;2.00;99.90;1.40;100778;;;;582811;242;24175;-80
2022/12/25 12:59:39;;;;;;;136.40;39.20;;;2.00;99.90;1.30;100774;;;;582948;243;24160;-80
2022/12/25 13:02:46;;;;;;;140.23;39.37;;;2.00;99.90;1.30;100777;;;;582614;243;24115;-80
2022/12/25 13:05:32;;;;;;;127.53;37.97;;;2.00;99.90;1.30;100772;;;;581085;243;25134;-80
2022/12/25 13:08:10;;;;;;;148.40;37.40;;;1.90;99.90;1.30;100762;;;;586923;243;24159;-79
2022/12/25 13:10:38;;;;;;;147.60;36.13;;;1.90;99.90;1.30;100760;;;;582522;243;24076;-81
2022/12/25 13:13:24;;;;;;;86.23;36.43;;;1.90;99.90;1.30;100764;;;;583264;242;24036;-80
2022/12/25 13:15:56;;;;;;;89.03;36.57;;;1.90;99.90;1.20;100759;;;;576813;246;24033;-81